El Hierro > ESTACION METEOROLÓGICA Mirador de Jinama

DATOS ACTUALES Online

Ultima actulizacion 42 minutos

11.8 ºC

Temperatura

98

Humedad (%)

884.2

Presión (mb)

0

Precipitación (mm)

10.1 W

Viento (Km/h)
32.4 Racha máxima

GRÁFICA DIARIA

Temperatura últimas 24 horas (ºC)

Humedad últimas 24 horas (%)

Presión atmosférica últimas 24 horas (mb)

Precipitaciones últimas 23 horas (mm)

Viento últimas 24 horas (Km/h)

Hora Temperatura (°C) ºC Precipitación (mm) mm Presión (mb) mb Humedad (%) % Viento (Km/h) km/h
27 - 04:00 11.4 0 883 44 10.8 SW
27 - 05:00 12.3 0 883 56 14.8 W
27 - 06:00 12.1 0 883 68 6.8 W
27 - 07:00 11.1 0 884 87 4.7 S
27 - 08:00 11.9 0 884 86 2.9 S
27 - 09:00 13.4 0 885 76 5.8 SW
27 - 10:00 15.2 0 885 66 23 W
27 - 11:00 16.4 0 885 55 27.7 SW
27 - 12:00 17.1 0 885 50 17.6 SW
27 - 13:00 17.3 0 885 72 5.4 SO
27 - 14:00 15.5 0 885 88 4.3 O
27 - 15:00 15.7 0 885 86 1.8 SO
27 - 16:00 15.3 0 885 88 1.8 W
27 - 17:00 14.4 0 884 89 4 O
27 - 18:00 13.3 0 884 93 11.5 O
27 - 19:00 12.9 0 884 91 1.1 NW
27 - 20:00 12.3 0 885 96 18.7 S
27 - 21:00 12.1 0 885 96 13.7 SO
27 - 22:00 11.8 0 885 97 24.8 SW
27 - 23:00 11.9 0 885 97 24.5 SW
28 - 00:00 11.9 0 885 97 21.2 SW
28 - 01:00 11.9 0 885 98 13.3 S
28 - 02:00 11.9 0 884 98 19.8 SW
28 - 03:00 11.8 0 884 98 10.1 W
28 - 04:00
Apalmet utiliza cookies propias y de terceros para mejorar la usabilidad y la experiencia web. Política de cookies.